This is the latest recevied weather packets stored in our database for station/object SQ7ACP-3. If no packets are shown the sender has not sent any weather packets the latest 10 day(s).
| Time | Temp. | Humidity | Pressure | Rain* | Wind** | Luminosity | Snow |
|---|---|---|---|---|---|---|---|
| 1777872327 | 13.89° C | 54% | 1013.7 hPa | 0 mm | - | - | - |
| 1777871715 | 13.33° C | 55% | 1013.7 hPa | 0 mm | - | - | - |
| 1777871102 | 12.22° C | 59% | 1013.8 hPa | 0 mm | - | - | - |
| 1777870490 | 10.56° C | 66% | 1013.7 hPa | 0 mm | - | - | - |
| 1777869877 | 8.89° C | 77% | 1013.7 hPa | 0 mm | - | - | - |
| 1777869264 | 8.33° C | 77% | 1013.6 hPa | 0 mm | - | - | - |
| 1777868655 | 7.78° C | 80% | 1013.5 hPa | 0 mm | - | - | - |
| 1777868039 | 7.22° C | 81% | 1013.5 hPa | 0 mm | - | - | - |
| 1777867427 | 7.22° C | 81% | 1013.5 hPa | 0 mm | - | - | - |
| 1777866814 | 7.22° C | 82% | 1013.4 hPa | 0 mm | - | - | - |
| 1777866218 | 6.67° C | 82% | 1013.4 hPa | 0 mm | - | - | - |
| 1777865602 | 6.67° C | 84% | 1013.4 hPa | 0 mm | - | - | - |
| 1777864989 | 6.67° C | 84% | 1013.4 hPa | 0 mm | - | - | - |
| 1777864377 | 6.67° C | 84% | 1013.3 hPa | 0 mm | - | - | - |
| 1777863776 | 6.67° C | 84% | 1013.2 hPa | 0 mm | - | - | - |
| 1777863164 | 6.67° C | 83% | 1013.2 hPa | 0 mm | - | - | - |
| 1777862552 | 6.67° C | 83% | 1013.3 hPa | 0 mm | - | - | - |
| 1777861939 | 7.22° C | 83% | 1013.3 hPa | 0 mm | - | - | - |
| 1777861326 | 7.22° C | 82% | 1013.3 hPa | 0 mm | - | - | - |
| 1777860727 | 7.22° C | 82% | 1013.4 hPa | 0 mm | - | - | - |
| 1777860114 | 7.78° C | 81% | 1013.4 hPa | 0 mm | - | - | - |
| 1777859514 | 7.78° C | 81% | 1013.4 hPa | 0 mm | - | - | - |
| 1777858902 | 8.33° C | 80% | 1013.4 hPa | 0 mm | - | - | - |
| 1777858302 | 8.89° C | 79% | 1013.4 hPa | 0 mm | - | - | - |
| 1777857689 | 8.89° C | 78% | 1013.5 hPa | 0 mm | - | - | - |
* Rain latest hour (hover to see other rain measurements)
** Current wind speed in m/s (hover to see current wind gust speed)